createdAt,value
2023-07-28T00:02:02.449Z,100.00
2023-07-28T00:04:29.002Z,100.00
2023-07-28T00:06:55.502Z,100.00
2023-07-28T00:09:23.841Z,100.00
2023-07-28T00:11:50.380Z,100.00
2023-07-28T00:14:16.826Z,100.00
2023-07-28T00:16:43.460Z,100.00
2023-07-28T00:19:10.075Z,100.00
2023-07-28T00:21:36.583Z,100.00
2023-07-28T00:24:03.158Z,100.00
2023-07-28T00:26:29.700Z,100.00
2023-07-28T00:28:56.174Z,100.00
2023-07-28T00:31:22.698Z,100.00
2023-07-28T00:33:49.305Z,100.00
2023-07-28T00:36:15.859Z,100.00
2023-07-28T00:38:42.538Z,100.00
2023-07-28T00:41:09.965Z,100.00
2023-07-28T00:43:36.619Z,100.00
2023-07-28T00:46:03.371Z,100.00
2023-07-28T00:48:30.284Z,100.00
2023-07-28T00:50:56.953Z,100.00
2023-07-28T00:53:24.903Z,100.00
2023-07-28T00:55:52.449Z,100.00
2023-07-28T00:58:19.884Z,100.00
2023-07-28T01:00:46.585Z,100.00
2023-07-28T01:03:13.179Z,100.00
2023-07-28T01:05:52.092Z,100.00
2023-07-28T01:08:36.271Z,100.00
2023-07-28T01:11:02.787Z,100.00
2023-07-28T01:13:29.308Z,100.00
2023-07-28T01:15:56.139Z,100.00
2023-07-28T01:18:22.856Z,100.00
2023-07-28T01:20:56.491Z,100.00
2023-07-28T01:24:05.017Z,100.00
2023-07-28T01:26:42.191Z,100.00
2023-07-28T01:29:10.229Z,100.00
2023-07-28T01:31:36.989Z,100.00
2023-07-28T01:34:03.618Z,100.00
2023-07-28T01:36:30.184Z,100.00
2023-07-28T01:38:56.815Z,100.00
2023-07-28T01:41:23.443Z,100.00
2023-07-28T01:43:50.099Z,100.00
2023-07-28T01:46:16.669Z,100.00
2023-07-28T01:48:43.246Z,100.00
2023-07-28T01:51:10.450Z,100.00
2023-07-28T01:53:36.963Z,100.00
2023-07-28T01:56:03.767Z,100.00
2023-07-28T01:58:30.357Z,100.00
2023-07-28T02:00:56.941Z,100.00
2023-07-28T02:03:23.816Z,100.00
2023-07-28T02:05:50.979Z,100.00
2023-07-28T02:08:17.522Z,100.00
2023-07-28T02:10:45.708Z,100.00
2023-07-28T02:13:12.338Z,100.00
2023-07-28T02:15:41.123Z,100.00
2023-07-28T02:18:08.290Z,100.00
2023-07-28T02:20:36.804Z,100.00
2023-07-28T02:23:03.950Z,100.00
2023-07-28T02:25:30.650Z,100.00
2023-07-28T02:27:57.379Z,100.00
2023-07-28T02:30:23.993Z,100.00
2023-07-28T02:32:50.585Z,100.00
2023-07-28T02:35:19.292Z,100.00
2023-07-28T02:37:47.685Z,100.00
2023-07-28T02:40:14.366Z,100.00
2023-07-28T02:42:40.962Z,100.00
2023-07-28T02:45:08.157Z,100.00
2023-07-28T02:47:34.746Z,100.00
2023-07-28T02:50:01.449Z,100.00
2023-07-28T02:52:28.026Z,100.00
2023-07-28T02:54:56.887Z,100.00
2023-07-28T02:57:23.382Z,100.00
2023-07-28T02:59:49.944Z,100.00
2023-07-28T03:02:16.611Z,100.00
2023-07-28T03:04:43.180Z,100.00
2023-07-28T03:07:09.764Z,100.00
2023-07-28T03:09:36.267Z,100.00
2023-07-28T03:12:03.891Z,100.00
2023-07-28T03:14:30.625Z,100.00
2023-07-28T03:16:57.215Z,100.00
2023-07-28T03:19:23.900Z,100.00
2023-07-28T03:21:50.518Z,100.00
2023-07-28T03:24:17.032Z,100.00
2023-07-28T03:26:43.554Z,100.00
2023-07-28T03:29:10.134Z,100.00
2023-07-28T03:31:36.897Z,100.00
2023-07-28T03:34:04.676Z,100.00
2023-07-28T03:36:31.245Z,100.00
2023-07-28T03:38:57.778Z,100.00
2023-07-28T03:41:24.343Z,100.00
2023-07-28T03:43:50.971Z,100.00
2023-07-28T03:46:17.602Z,100.00
2023-07-28T03:48:44.113Z,100.00
2023-07-28T03:51:10.640Z,100.00
2023-07-28T03:53:38.750Z,100.00
2023-07-28T03:56:05.771Z,100.00
2023-07-28T03:58:32.856Z,100.00
2023-07-28T04:00:59.522Z,100.00
2023-07-28T04:03:26.117Z,100.00
2023-07-28T04:05:52.683Z,100.00
2023-07-28T04:08:19.207Z,100.00
2023-07-28T04:10:45.707Z,100.00
2023-07-28T04:13:12.275Z,100.00
2023-07-28T04:15:38.780Z,100.00
2023-07-28T04:18:05.423Z,100.00
2023-07-28T04:20:32.013Z,100.00
2023-07-28T04:22:58.639Z,100.00
2023-07-28T04:25:25.119Z,100.00
2023-07-28T04:27:51.718Z,100.00
2023-07-28T04:30:18.384Z,100.00
2023-07-28T04:32:44.975Z,100.00
2023-07-28T04:35:11.594Z,100.00
2023-07-28T04:37:38.132Z,100.00
2023-07-28T04:40:05.173Z,100.00
2023-07-28T04:42:31.690Z,100.00
2023-07-28T04:44:58.223Z,100.00
2023-07-28T04:47:24.795Z,100.00
2023-07-28T04:49:51.307Z,100.00
2023-07-28T04:52:17.841Z,100.00
2023-07-28T04:54:44.404Z,100.00
2023-07-28T04:57:11.932Z,100.00
2023-07-28T04:59:40.200Z,100.00
2023-07-28T05:02:07.625Z,100.00
2023-07-28T05:04:34.262Z,100.00
2023-07-28T05:07:00.854Z,100.00
2023-07-28T05:09:29.162Z,100.00
2023-07-28T05:11:56.165Z,100.00
2023-07-28T05:14:22.815Z,100.00
2023-07-28T05:16:49.508Z,100.00
2023-07-28T05:19:16.245Z,100.00
2023-07-28T05:21:42.805Z,100.00
2023-07-28T05:24:09.752Z,100.00
2023-07-28T05:26:36.295Z,100.00
2023-07-28T05:29:02.815Z,100.00
2023-07-28T05:31:29.293Z,100.00
2023-07-28T05:33:55.948Z,100.00
2023-07-28T05:36:22.586Z,100.00
2023-07-28T05:38:49.257Z,100.00
2023-07-28T05:41:16.625Z,100.00
2023-07-28T05:43:43.297Z,100.00
2023-07-28T05:46:09.946Z,100.00
2023-07-28T05:48:36.547Z,100.00
2023-07-28T05:51:03.300Z,100.00
2023-07-28T05:53:30.417Z,100.00
2023-07-28T05:55:56.944Z,100.00
2023-07-28T05:58:24.088Z,100.00
2023-07-28T06:00:50.836Z,100.00
2023-07-28T06:03:17.700Z,100.00
2023-07-28T06:05:44.364Z,100.00
2023-07-28T06:08:10.864Z,100.00
2023-07-28T06:10:38.181Z,100.00
2023-07-28T06:13:04.765Z,100.00
2023-07-28T06:15:31.400Z,100.00
2023-07-28T06:17:58.237Z,100.00
2023-07-28T06:20:25.364Z,100.00
2023-07-28T06:22:51.957Z,100.00
2023-07-28T06:25:18.732Z,100.00
2023-07-28T06:27:45.282Z,100.00
2023-07-28T06:30:12.307Z,100.00
2023-07-28T06:32:38.924Z,100.00
2023-07-28T06:35:08.168Z,100.00
2023-07-28T06:37:36.131Z,100.00
2023-07-28T06:40:02.777Z,100.00
2023-07-28T06:42:29.313Z,100.00
2023-07-28T06:44:55.890Z,100.00
2023-07-28T06:47:22.419Z,100.00
2023-07-28T06:49:49.840Z,100.00
2023-07-28T06:52:16.376Z,100.00
2023-07-28T06:54:42.947Z,100.00
2023-07-28T06:57:09.643Z,100.00
2023-07-28T06:59:36.301Z,100.00
2023-07-28T07:02:02.940Z,100.00
2023-07-28T07:04:29.512Z,100.00
2023-07-28T07:06:56.116Z,100.00
2023-07-28T07:09:22.643Z,100.00
2023-07-28T07:11:49.415Z,100.00
2023-07-28T07:14:15.914Z,100.00
2023-07-28T07:16:42.697Z,100.00
2023-07-28T07:19:10.115Z,100.00
2023-07-28T07:21:37.023Z,100.00
2023-07-28T07:24:05.266Z,100.00
2023-07-28T07:26:34.622Z,100.00
2023-07-28T07:29:01.258Z,100.00
2023-07-28T07:31:28.172Z,100.00
2023-07-28T07:33:54.689Z,100.00
2023-07-28T07:36:21.419Z,100.00
2023-07-28T07:38:49.783Z,100.00
2023-07-28T07:41:22.632Z,100.00
2023-07-28T07:43:50.767Z,100.00
2023-07-28T07:46:17.483Z,100.00
2023-07-28T07:48:44.319Z,100.00
2023-07-28T07:51:10.893Z,100.00
2023-07-28T07:53:37.499Z,100.00
2023-07-28T07:56:04.843Z,100.00
2023-07-28T07:58:31.859Z,100.00
2023-07-28T08:00:58.419Z,100.00
2023-07-28T08:03:25.169Z,100.00
2023-07-28T08:05:52.603Z,100.00
2023-07-28T08:08:20.757Z,100.00
2023-07-28T08:10:48.326Z,100.00
2023-07-28T08:13:15.818Z,100.00
2023-07-28T08:15:46.189Z,100.00
2023-07-28T08:18:14.073Z,100.00
2023-07-28T08:20:40.814Z,100.00
2023-07-28T08:23:07.472Z,100.00
2023-07-28T08:25:35.552Z,100.00
2023-07-28T08:28:02.663Z,98.43
2023-07-28T08:30:29.410Z,97.17
2023-07-28T08:32:55.917Z,95.83
2023-07-28T08:35:22.494Z,95.04
2023-07-28T08:37:48.943Z,94.14
2023-07-28T08:40:15.669Z,93.23
2023-07-28T08:42:42.205Z,94.50
2023-07-28T08:45:09.555Z,94.44
2023-07-28T08:47:38.182Z,94.69
2023-07-28T08:50:07.116Z,96.92
2023-07-28T08:52:33.946Z,95.36
2023-07-28T08:55:00.503Z,95.33
2023-07-28T08:57:28.342Z,94.71
2023-07-28T08:59:55.541Z,95.71
2023-07-28T09:02:22.752Z,97.18
2023-07-28T09:04:50.164Z,95.42
2023-07-28T09:07:16.719Z,93.88
2023-07-28T09:09:43.687Z,94.48
2023-07-28T09:12:10.303Z,92.83
2023-07-28T09:14:38.146Z,94.50
2023-07-28T09:17:13.980Z,93.38
2023-07-28T09:19:54.437Z,91.93
2023-07-28T09:22:21.633Z,91.33
2023-07-28T09:24:49.016Z,90.89
2023-07-28T09:27:24.280Z,89.46
2023-07-28T09:29:58.828Z,87.70
2023-07-28T09:32:34.055Z,87.59
2023-07-28T09:35:10.584Z,87.10
2023-07-28T09:37:40.467Z,83.97
2023-07-28T09:40:14.772Z,84.12
2023-07-28T09:42:51.036Z,83.87
2023-07-28T09:45:36.570Z,84.32
2023-07-28T09:48:10.358Z,81.02
2023-07-28T09:50:39.650Z,82.81
2023-07-28T09:53:09.738Z,81.45
2023-07-28T09:55:40.646Z,80.96
2023-07-28T09:58:11.195Z,80.06
2023-07-28T10:00:38.562Z,78.89
2023-07-28T10:03:05.597Z,77.54
2023-07-28T10:05:33.826Z,77.44
2023-07-28T10:08:01.040Z,79.88
2023-07-28T10:10:28.122Z,78.48
2023-07-28T10:12:58.172Z,76.33
2023-07-28T10:15:30.937Z,77.41
2023-07-28T10:17:59.982Z,76.15
2023-07-28T10:20:40.549Z,75.90
2023-07-28T10:23:16.720Z,76.43
2023-07-28T10:25:45.473Z,76.02
2023-07-28T10:28:33.326Z,76.32
2023-07-28T10:31:00.957Z,73.65
2023-07-28T10:33:31.334Z,73.43
2023-07-28T10:36:00.368Z,71.65
2023-07-28T10:38:35.748Z,72.17
2023-07-28T10:41:19.771Z,72.19
2023-07-28T10:43:47.288Z,72.37
2023-07-28T10:46:17.881Z,69.96
2023-07-28T10:48:47.056Z,68.58
2023-07-28T10:51:21.884Z,68.83
2023-07-28T10:53:51.698Z,70.25
2023-07-28T10:56:19.898Z,71.73
2023-07-28T10:58:46.401Z,70.19
2023-07-28T11:01:13.057Z,70.82
2023-07-28T11:03:41.212Z,71.90
2023-07-28T11:06:07.845Z,71.42
2023-07-28T11:08:36.319Z,74.63
2023-07-28T11:11:05.241Z,73.96
2023-07-28T11:13:40.830Z,73.66
2023-07-28T11:16:09.090Z,73.07
2023-07-28T11:18:35.602Z,73.64
2023-07-28T11:21:02.135Z,74.76
2023-07-28T11:23:29.779Z,74.66
2023-07-28T11:25:56.436Z,75.17
2023-07-28T11:28:23.057Z,75.82
2023-07-28T11:30:49.916Z,74.08
2023-07-28T11:33:16.628Z,73.86
2023-07-28T11:35:45.735Z,73.63
2023-07-28T11:38:13.679Z,74.60
2023-07-28T11:40:40.887Z,75.57
2023-07-28T11:43:07.792Z,74.94
2023-07-28T11:45:34.363Z,74.17
2023-07-28T11:48:07.052Z,73.15
2023-07-28T11:50:39.850Z,73.27
2023-07-28T11:53:07.535Z,73.32
2023-07-28T11:55:37.748Z,75.22
2023-07-28T11:58:06.441Z,73.55
2023-07-28T12:00:37.286Z,70.75
2023-07-28T12:03:14.544Z,72.77
2023-07-28T12:06:13.398Z,71.12
2023-07-28T12:08:41.088Z,70.48
2023-07-28T12:19:15.298Z,68.37
2023-07-28T12:21:42.360Z,68.68
2023-07-28T12:24:09.011Z,69.38
2023-07-28T12:26:38.000Z,69.24
2023-07-28T12:31:45.978Z,67.15
2023-07-28T12:34:25.406Z,66.40
2023-07-28T12:36:54.397Z,64.83
2023-07-28T12:42:13.938Z,64.60
2023-07-28T12:47:12.164Z,64.40
2023-07-28T12:49:38.777Z,62.63
2023-07-28T12:52:19.679Z,64.35
2023-07-28T12:54:46.787Z,64.77
2023-07-28T12:57:14.017Z,63.15
2023-07-28T13:02:20.429Z,62.51
2023-07-28T13:04:46.887Z,60.71
2023-07-28T13:09:43.130Z,61.79
2023-07-28T13:14:39.303Z,62.79
2023-07-28T13:17:07.473Z,63.44
2023-07-28T13:19:34.079Z,63.72
2023-07-28T13:22:00.660Z,63.60
2023-07-28T13:24:30.627Z,61.65
2023-07-28T13:26:58.207Z,62.26
2023-07-28T13:29:27.613Z,61.90
2023-07-28T13:32:02.398Z,62.77
2023-07-28T13:34:29.165Z,61.64
2023-07-28T13:36:56.708Z,62.27
2023-07-28T13:39:24.708Z,63.64
2023-07-28T13:41:51.492Z,62.52
2023-07-28T13:44:18.069Z,62.57
2023-07-28T13:46:44.692Z,61.57
2023-07-28T13:49:11.474Z,61.04
2023-07-28T13:59:19.056Z,59.18
2023-07-28T14:01:45.619Z,59.22
2023-07-28T14:04:12.387Z,59.04
2023-07-28T14:06:39.413Z,58.32
2023-07-28T14:09:05.955Z,57.79
2023-07-28T14:11:32.596Z,58.47
2023-07-28T14:13:59.183Z,57.97
2023-07-28T14:16:25.946Z,58.08
2023-07-28T14:18:52.584Z,58.33
2023-07-28T14:21:19.598Z,58.72
2023-07-28T14:23:46.076Z,58.65
2023-07-28T14:26:15.659Z,58.96
2023-07-28T14:28:42.387Z,57.82
2023-07-28T14:31:09.042Z,58.49
2023-07-28T14:33:35.659Z,59.18
2023-07-28T14:36:02.134Z,58.53
2023-07-28T14:38:28.718Z,58.25
2023-07-28T14:40:55.214Z,58.15
2023-07-28T14:43:30.544Z,58.00
2023-07-28T14:45:57.095Z,59.79
2023-07-28T14:48:23.639Z,59.60
2023-07-28T14:50:50.188Z,60.20
2023-07-28T14:53:49.505Z,61.97
2023-07-28T14:56:17.978Z,61.92
2023-07-28T14:58:44.903Z,61.69
2023-07-28T15:01:12.285Z,62.09
2023-07-28T15:03:39.890Z,63.82
2023-07-28T15:06:06.677Z,63.99
2023-07-28T15:08:33.458Z,64.67
2023-07-28T15:11:00.670Z,66.57
2023-07-28T15:13:27.473Z,66.89
2023-07-28T15:15:55.523Z,67.94
2023-07-28T15:18:22.172Z,66.47
2023-07-28T15:20:48.846Z,66.83
2023-07-28T15:23:15.432Z,65.39
2023-07-28T15:25:46.995Z,65.69
2023-07-28T15:28:15.015Z,65.55
2023-07-28T15:30:46.362Z,65.40
2023-07-28T15:33:13.890Z,65.46
2023-07-28T15:35:40.559Z,65.97
2023-07-28T15:38:07.307Z,63.34
2023-07-28T15:40:34.087Z,64.52
2023-07-28T15:43:00.684Z,63.43
2023-07-28T15:45:27.539Z,61.29
2023-07-28T15:47:54.111Z,61.62
2023-07-28T15:50:20.829Z,62.43
2023-07-28T15:52:48.202Z,61.65
2023-07-28T15:55:14.846Z,62.49
2023-07-28T15:57:41.642Z,63.58
2023-07-28T16:00:11.099Z,63.89
2023-07-28T16:02:38.125Z,63.93
2023-07-28T16:05:05.227Z,65.43
2023-07-28T16:07:33.647Z,65.35
2023-07-28T16:10:00.831Z,65.68
2023-07-28T16:12:27.520Z,65.50
2023-07-28T16:14:55.594Z,65.12
2023-07-28T16:17:22.660Z,65.57
2023-07-28T16:19:49.262Z,65.28
2023-07-28T16:22:15.808Z,64.68
2023-07-28T16:24:42.852Z,66.00
2023-07-28T16:27:10.493Z,65.83
2023-07-28T16:29:37.110Z,66.41
2023-07-28T16:32:03.646Z,66.75
2023-07-28T16:34:30.446Z,68.47
2023-07-28T16:36:56.983Z,68.55
2023-07-28T16:39:23.543Z,68.92
2023-07-28T16:41:51.115Z,69.90
2023-07-28T16:44:17.757Z,70.43
2023-07-28T16:46:44.265Z,70.54
2023-07-28T16:49:10.832Z,70.74
2023-07-28T16:51:37.862Z,70.75
2023-07-28T16:54:04.571Z,70.81
2023-07-28T16:56:31.119Z,71.55
2023-07-28T16:58:57.641Z,71.73
2023-07-28T17:01:27.141Z,71.11
2023-07-28T17:03:53.693Z,70.74
2023-07-28T17:06:20.218Z,70.39
2023-07-28T17:08:48.226Z,69.96
2023-07-28T17:11:15.059Z,69.52
2023-07-28T17:13:41.605Z,68.73
2023-07-28T17:16:08.185Z,68.01
2023-07-28T17:18:34.725Z,68.01
2023-07-28T17:21:01.334Z,69.55
2023-07-28T17:23:28.149Z,69.70
2023-07-28T17:25:54.772Z,69.78
2023-07-28T17:28:21.456Z,69.71
2023-07-28T17:30:48.616Z,70.13
2023-07-28T17:33:15.303Z,69.71
2023-07-28T17:35:41.957Z,70.38
2023-07-28T17:38:09.754Z,70.42
2023-07-28T17:40:36.258Z,70.49
2023-07-28T17:43:02.782Z,70.37
2023-07-28T17:45:29.348Z,70.83
2023-07-28T17:47:55.854Z,70.47
2023-07-28T17:50:22.604Z,70.29
2023-07-28T17:52:50.597Z,70.37
2023-07-28T17:55:18.208Z,69.98
2023-07-28T17:57:45.759Z,70.69
2023-07-28T18:00:18.642Z,71.64
2023-07-28T18:02:46.353Z,71.52
2023-07-28T18:05:15.658Z,71.57
2023-07-28T18:07:42.294Z,72.09
2023-07-28T18:10:09.666Z,72.40
2023-07-28T18:12:36.452Z,72.44
2023-07-28T18:15:07.538Z,72.62
2023-07-28T18:17:34.783Z,73.35
2023-07-28T18:20:01.461Z,73.59
2023-07-28T18:22:28.350Z,74.23
2023-07-28T18:24:55.745Z,74.21
2023-07-28T18:27:22.353Z,74.51
2023-07-28T18:29:49.690Z,73.94
2023-07-28T18:32:16.250Z,74.03
2023-07-28T18:34:42.912Z,74.44
2023-07-28T18:37:09.711Z,75.40
2023-07-28T18:39:38.327Z,75.49
2023-07-28T18:42:05.692Z,75.80
2023-07-28T18:44:32.439Z,76.15
2023-07-28T18:47:00.714Z,75.38
2023-07-28T18:49:27.481Z,75.72
2023-07-28T18:51:54.147Z,76.65
2023-07-28T18:54:22.220Z,76.17
2023-07-28T18:56:49.668Z,76.24
2023-07-28T18:59:16.992Z,76.60
2023-07-28T19:01:43.668Z,77.06
2023-07-28T19:04:11.360Z,77.67
2023-07-28T19:06:52.165Z,77.77
2023-07-28T19:09:19.761Z,78.18
2023-07-28T19:11:46.321Z,77.74
2023-07-28T19:14:12.843Z,78.81
2023-07-28T19:16:39.608Z,78.78
2023-07-28T19:19:06.252Z,79.12
2023-07-28T19:21:32.898Z,79.12
2023-07-28T19:23:59.462Z,79.66
2023-07-28T19:26:26.218Z,80.01
2023-07-28T19:28:53.801Z,80.39
2023-07-28T19:31:21.479Z,81.11
2023-07-28T19:33:48.345Z,81.33
2023-07-28T19:36:15.451Z,81.21
2023-07-28T19:38:42.146Z,81.99
2023-07-28T19:41:12.915Z,81.95
2023-07-28T19:43:39.883Z,82.50
2023-07-28T19:46:06.552Z,83.14
2023-07-28T19:48:33.276Z,83.70
2023-07-28T19:51:21.198Z,83.59
2023-07-28T19:53:50.811Z,83.84
2023-07-28T19:56:20.568Z,84.10
2023-07-28T19:58:47.128Z,84.30
2023-07-28T20:01:14.364Z,84.57
2023-07-28T20:03:41.075Z,84.88
2023-07-28T20:06:08.645Z,85.04
2023-07-28T20:08:36.673Z,85.16
2023-07-28T20:11:05.475Z,85.76
2023-07-28T20:13:32.060Z,85.85
2023-07-28T20:15:59.679Z,86.21
2023-07-28T20:18:26.547Z,86.02
2023-07-28T20:20:53.234Z,85.93
2023-07-28T20:23:20.411Z,86.31
2023-07-28T20:25:47.411Z,85.87
2023-07-28T20:28:14.257Z,85.67
2023-07-28T20:30:40.984Z,86.07
2023-07-28T20:33:07.593Z,86.32
2023-07-28T20:35:39.851Z,86.22
2023-07-28T20:38:07.274Z,86.88
2023-07-28T20:40:33.983Z,87.33
2023-07-28T20:43:00.776Z,87.05
2023-07-28T20:45:27.532Z,87.63
2023-07-28T20:47:54.160Z,88.01
2023-07-28T20:50:20.762Z,88.47
2023-07-28T20:52:47.822Z,88.95
2023-07-28T20:55:14.326Z,88.80
2023-07-28T20:57:41.098Z,89.16
2023-07-28T21:00:09.094Z,89.05
2023-07-28T21:02:36.274Z,89.36
2023-07-28T21:05:03.743Z,89.44
2023-07-28T21:07:30.630Z,89.88
2023-07-28T21:09:57.152Z,89.80
2023-07-28T21:12:47.962Z,89.82
2023-07-28T21:15:17.581Z,90.95
2023-07-28T21:17:44.539Z,90.75
2023-07-28T21:20:14.145Z,91.99
2023-07-28T21:22:40.838Z,91.75
2023-07-28T21:25:08.416Z,92.49
2023-07-28T21:27:36.122Z,91.95
2023-07-28T21:30:03.784Z,91.84
2023-07-28T21:32:30.373Z,92.43
2023-07-28T21:34:56.951Z,92.31
2023-07-28T21:37:25.483Z,92.18
2023-07-28T21:39:52.017Z,92.73
2023-07-28T21:42:18.574Z,92.31
2023-07-28T21:44:45.304Z,92.56
2023-07-28T21:47:11.842Z,92.88
2023-07-28T21:49:38.392Z,92.48
2023-07-28T21:52:05.315Z,92.70
2023-07-28T21:54:31.854Z,92.46
2023-07-28T21:56:58.741Z,92.11
2023-07-28T21:59:26.452Z,92.04
2023-07-28T22:01:53.225Z,92.36
2023-07-28T22:04:20.040Z,91.66
2023-07-28T22:06:46.946Z,92.15
2023-07-28T22:09:13.528Z,91.66
2023-07-28T22:11:43.187Z,92.30
2023-07-28T22:14:12.877Z,92.53
2023-07-28T22:16:42.202Z,92.46
2023-07-28T22:19:09.458Z,92.59
2023-07-28T22:21:38.181Z,92.19
2023-07-28T22:24:08.785Z,92.07
2023-07-28T22:26:35.948Z,91.63
2023-07-28T22:29:03.033Z,91.18
2023-07-28T22:31:29.720Z,91.27
2023-07-28T22:33:56.982Z,92.04
2023-07-28T22:36:23.714Z,92.24
2023-07-28T22:38:50.271Z,92.27
2023-07-28T22:41:16.916Z,92.43
2023-07-28T22:43:43.550Z,92.89
2023-07-28T22:46:10.252Z,93.13
2023-07-28T22:48:36.950Z,93.24
2023-07-28T22:51:06.596Z,93.05
2023-07-28T22:53:34.098Z,93.57
2023-07-28T22:56:00.785Z,93.26
2023-07-28T22:58:28.088Z,93.48
2023-07-28T23:00:55.507Z,93.88
2023-07-28T23:03:22.073Z,93.61
2023-07-28T23:05:48.683Z,93.36
2023-07-28T23:08:15.281Z,92.76
2023-07-28T23:10:47.215Z,92.76
2023-07-28T23:13:16.966Z,93.12
2023-07-28T23:15:43.743Z,93.01
2023-07-28T23:18:10.315Z,93.23
2023-07-28T23:20:36.942Z,93.48
2023-07-28T23:23:04.669Z,93.85
2023-07-28T23:25:34.420Z,93.95
2023-07-28T23:28:01.125Z,94.23
2023-07-28T23:30:28.578Z,94.66
2023-07-28T23:32:55.255Z,94.54
2023-07-28T23:35:21.896Z,94.74
2023-07-28T23:37:49.037Z,94.89
2023-07-28T23:40:15.685Z,95.09
2023-07-28T23:42:43.352Z,95.26
2023-07-28T23:45:10.569Z,94.76
2023-07-28T23:47:37.435Z,95.21
2023-07-28T23:50:04.249Z,95.31
2023-07-28T23:52:31.119Z,96.20
2023-07-28T23:54:58.459Z,96.08
2023-07-28T23:57:25.015Z,96.70
2023-07-28T23:59:51.532Z,96.40
